Hav Tind — OZ2071 — position and weather

sailwx.info

Track history (hours):
 
Tides and Currents Weather Stations Pressure Air Temp Water Temp Dewpoint Dewpoint Depression Visibility Wind Speed Wind Dir Waves Ship Positions

Hav Tind

Last reported at 2016-Jul-28 01:33 UTC. Time now 2016-Jul-28 02:51 UTC.
Position N 62°14' W 006°48'.

Length 60 m; draft 4 m.

Type: Cargo ship. MMSI: 231565000.

Date/timePositionNaut miles runAvg speedWind from/ knotsBaromVisibWave heightAir tempDewpointWater temp
2016-Jul-28 01:33N 62°14' W 006°48'0 0.0
2016-Jul-28 00:33N 62°14' W 006°48'0 0.0
2016-Jul-27 23:33N 62°14' W 006°48'0 0.0
2016-Jul-27 22:33N 62°14' W 006°48'0 0.0
2016-Jul-27 21:33N 62°14' W 006°48'0 0.0
2016-Jul-27 20:29N 62°14' W 006°48'0 0.0
2016-Jul-27 19:33N 62°14' W 006°48'0 0.0
2016-Jul-27 18:33N 62°14' W 006°48'1 0.8
2016-Jul-27 17:33N 62°14' W 006°46'5 4.9
2016-Jul-27 16:29N 62°16' W 006°57'0 0.0
2016-Jul-27 15:33N 62°16' W 006°57'5 5.0
2016-Jul-27 14:33N 62°16' W 006°46'6 5.7
2016-Jul-27 13:33N 62°10' W 006°41'1 0.9
2016-Jul-27 12:33N 62°10' W 006°43'4 2.1
2016-Jul-27 10:31N 62°08' W 006°35'9 9.2
2016-Jul-27 09:33N 62°00' W 006°45'1 1.0
2016-Jul-27 08:33N 61°59' W 006°45'2 2.2
2016-Jul-27 07:33N 62°01' W 006°43'9 9.5
2016-Jul-27 06:33N 62°10' W 006°35'6 0.4
2016-Jul-26 15:33N 62°14' W 006°44'8 8.0
2016-Jul-26 14:33N 62°10' W 006°30'7 6.8
2016-Jul-26 13:34N 62°17' W 006°29'0 0.0
2016-Jul-26 12:33N 62°17' W 006°29'1 0.5
2016-Jul-26 11:33N 62°16' W 006°29'0 0.0
2016-Jul-26 10:33N 62°16' W 006°29'4 4.4
2016-Jul-26 09:33N 62°13' W 006°24'8 8.2
2016-Jul-26 08:33N 62°08' W 006°38'1 1.5
2016-Jul-26 07:33N 62°08' W 006°41'3 3.3
2016-Jul-26 06:33N 62°09' W 006°34'8 0.5
2016-Jul-25 15:21N 62°14' W 006°48'6 7.6
2016-Jul-25 14:33N 62°12' W 006°36'3 3.3
2016-Jul-25 13:33N 62°14' W 006°30'0 0.3
2016-Jul-25 12:33N 62°14' W 006°30'0 0.0
2016-Jul-25 11:33N 62°14' W 006°30'2 2.2
2016-Jul-25 10:33N 62°13' W 006°27'3 2.7
2016-Jul-25 09:31N 62°12' W 006°32'0 0.0
2016-Jul-25 08:33N 62°12' W 006°32'0 0.0
2016-Jul-25 07:33N 62°12' W 006°32'4 3.5
2016-Jul-25 06:33N 62°12' W 006°40'4 0.3
2016-Jul-24 15:26N 62°14' W 006°48'0 0.0
2016-Jul-24 14:22N 62°14' W 006°48'0 0.0
2016-Jul-24 13:28N 62°14' W 006°48'0 0.0
2016-Jul-24 11:11N 62°14' W 006°48'0 0.0
2016-Jul-24 09:30N 62°14' W 006°48'0 0.0
2016-Jul-24 04:03N 62°14' W 006°48'0 0.0
2016-Jul-24 03:24N 62°14' W 006°48'0 0.0
2016-Jul-24 02:13N 62°14' W 006°48'0 0.0
2016-Jul-24 01:33N 62°14' W 006°48'0 0.0
2016-Jul-24 00:33N 62°14' W 006°48'0 0.0
2016-Jul-23 23:32N 62°14' W 006°48'0 0.0
2016-Jul-23 22:19N 62°14' W 006°48'0 0.0
2016-Jul-23 21:31N 62°14' W 006°48'0 0.0
2016-Jul-23 20:32N 62°14' W 006°48'0 0.0
2016-Jul-23 14:30N 62°14' W 006°48'0 0.0
2016-Jul-23 12:20N 62°14' W 006°48'0 0.0
2016-Jul-23 11:33N 62°14' W 006°48'0 0.0
2016-Jul-23 10:31N 62°14' W 006°48'0 0.0
2016-Jul-23 09:23N 62°14' W 006°48'0 0.0
2016-Jul-23 00:33N 62°14' W 006°48'0 0.0
2016-Jul-22 23:25N 62°14' W 006°48'0 0.0
2016-Jul-22 21:30N 62°14' W 006°48'0 0.0
2016-Jul-22 20:33N 62°14' W 006°48'1 0.1
2016-Jul-22 09:33N 62°13' W 006°48'2 2.0
2016-Jul-22 08:33N 62°15' W 006°46'4 2.1
2016-Jul-22 06:33N 62°18' W 006°53'7 0.4
2016-Jul-21 13:33N 62°13' W 006°42'4 4.4
2016-Jul-21 12:33N 62°08' W 006°41'0 0.3
2016-Jul-21 11:33N 62°08' W 006°41'2 2.3
2016-Jul-21 10:33N 62°08' W 006°36'4 4.0
2016-Jul-21 09:33N 62°10' W 006°43'0 0.0
2016-Jul-21 08:33N 62°10' W 006°43'2 2.4
2016-Jul-21 07:33N 62°13' W 006°42'2 0.1
2016-Jul-20 13:33N 62°14' W 006°46'8 7.6
2016-Jul-20 12:33N 62°07' W 006°36'8 8.0
2016-Jul-20 11:33N 62°01' W 006°45'1 1.3
2016-Jul-20 10:33N 61°59' W 006°45'7 6.7
2016-Jul-20 09:34N 62°05' W 006°39'7 7.3
2016-Jul-20 08:33N 62°12' W 006°32'0 0.0
2016-Jul-20 07:33N 62°12' W 006°32'2 1.8
2016-Jul-20 06:33N 62°12' W 006°36'6 1.0
2016-Jul-20 00:33N 62°14' W 006°48'0 0.0
2016-Jul-19 23:21N 62°14' W 006°48'0 0.0
2016-Jul-19 21:16N 62°14' W 006°48'0 0.0
2016-Jul-19 20:15N 62°14' W 006°48'0 0.0
2016-Jul-19 19:33N 62°14' W 006°48'0 0.0
2016-Jul-19 18:33N 62°14' W 006°48'0 0.0
2016-Jul-19 13:09N 62°14' W 006°48'0 0.0
2016-Jul-19 12:18N 62°14' W 006°48'1 0.0
2016-Jul-18 15:33N 62°14' W 006°47'10 9.9
2016-Jul-18 14:33N 62°11' W 006°26'6 5.9
2016-Jul-18 13:33N 62°17' W 006°29'0 0.0
2016-Jul-18 12:33N 62°17' W 006°29'1 0.5
2016-Jul-18 11:33N 62°16' W 006°29'0 0.0
2016-Jul-18 10:33N 62°16' W 006°29'6 6.3
2016-Jul-18 09:33N 62°10' W 006°27'7 6.9
2016-Jul-18 08:33N 62°08' W 006°41'0 0.0
2016-Jul-18 07:33N 62°08' W 006°41'3 3.0
2016-Jul-18 06:33N 62°11' W 006°38'  
Track history (hours):
 
Tides and Currents Weather Stations Pressure Air Temp Water Temp Dewpoint Dewpoint Depression Visibility Wind Speed Wind Dir Waves Ship Positions

Hav Tind

Last reported at 2016-Jul-28 01:33 UTC. Time now 2016-Jul-28 02:51 UTC.
Position N 62°14' W 006°48'.

Length 60 m; draft 4 m.

Type: Cargo ship. MMSI: 231565000.

Date/timePositionNaut miles runAvg speedWind from/ knotsBaromVisibWave heightAir tempDewpointWater temp
2016-Jul-28 01:33N 62°14' W 006°48'0 0.0
2016-Jul-28 00:33N 62°14' W 006°48'0 0.0
2016-Jul-27 23:33N 62°14' W 006°48'0 0.0
2016-Jul-27 22:33N 62°14' W 006°48'0 0.0
2016-Jul-27 21:33N 62°14' W 006°48'0 0.0
2016-Jul-27 20:29N 62°14' W 006°48'0 0.0
2016-Jul-27 19:33N 62°14' W 006°48'0 0.0
2016-Jul-27 18:33N 62°14' W 006°48'1 0.8
2016-Jul-27 17:33N 62°14' W 006°46'5 4.9
2016-Jul-27 16:29N 62°16' W 006°57'0 0.0
2016-Jul-27 15:33N 62°16' W 006°57'5 5.0
2016-Jul-27 14:33N 62°16' W 006°46'6 5.7
2016-Jul-27 13:33N 62°10' W 006°41'1 0.9
2016-Jul-27 12:33N 62°10' W 006°43'4 2.1
2016-Jul-27 10:31N 62°08' W 006°35'9 9.2
2016-Jul-27 09:33N 62°00' W 006°45'1 1.0
2016-Jul-27 08:33N 61°59' W 006°45'2 2.2
2016-Jul-27 07:33N 62°01' W 006°43'9 9.5
2016-Jul-27 06:33N 62°10' W 006°35'6 0.4
2016-Jul-26 15:33N 62°14' W 006°44'8 8.0
2016-Jul-26 14:33N 62°10' W 006°30'7 6.8
2016-Jul-26 13:34N 62°17' W 006°29'0 0.0
2016-Jul-26 12:33N 62°17' W 006°29'1 0.5
2016-Jul-26 11:33N 62°16' W 006°29'0 0.0
2016-Jul-26 10:33N 62°16' W 006°29'4 4.4
2016-Jul-26 09:33N 62°13' W 006°24'8 8.2
2016-Jul-26 08:33N 62°08' W 006°38'1 1.5
2016-Jul-26 07:33N 62°08' W 006°41'3 3.3
2016-Jul-26 06:33N 62°09' W 006°34'8 0.5
2016-Jul-25 15:21N 62°14' W 006°48'6 7.6
2016-Jul-25 14:33N 62°12' W 006°36'3 3.3
2016-Jul-25 13:33N 62°14' W 006°30'0 0.3
2016-Jul-25 12:33N 62°14' W 006°30'0 0.0
2016-Jul-25 11:33N 62°14' W 006°30'2 2.2
2016-Jul-25 10:33N 62°13' W 006°27'3 2.7
2016-Jul-25 09:31N 62°12' W 006°32'0 0.0
2016-Jul-25 08:33N 62°12' W 006°32'0 0.0
2016-Jul-25 07:33N 62°12' W 006°32'4 3.5
2016-Jul-25 06:33N 62°12' W 006°40'4 0.3
2016-Jul-24 15:26N 62°14' W 006°48'0 0.0
2016-Jul-24 14:22N 62°14' W 006°48'0 0.0
2016-Jul-24 13:28N 62°14' W 006°48'0 0.0
2016-Jul-24 11:11N 62°14' W 006°48'0 0.0
2016-Jul-24 09:30N 62°14' W 006°48'0 0.0
2016-Jul-24 04:03N 62°14' W 006°48'0 0.0
2016-Jul-24 03:24N 62°14' W 006°48'0 0.0
2016-Jul-24 02:13N 62°14' W 006°48'0 0.0
2016-Jul-24 01:33N 62°14' W 006°48'0 0.0
2016-Jul-24 00:33N 62°14' W 006°48'0 0.0
2016-Jul-23 23:32N 62°14' W 006°48'0 0.0
2016-Jul-23 22:19N 62°14' W 006°48'0 0.0
2016-Jul-23 21:31N 62°14' W 006°48'0 0.0
2016-Jul-23 20:32N 62°14' W 006°48'0 0.0
2016-Jul-23 14:30N 62°14' W 006°48'0 0.0
2016-Jul-23 12:20N 62°14' W 006°48'0 0.0
2016-Jul-23 11:33N 62°14' W 006°48'0 0.0
2016-Jul-23 10:31N 62°14' W 006°48'0 0.0
2016-Jul-23 09:23N 62°14' W 006°48'0 0.0
2016-Jul-23 00:33N 62°14' W 006°48'0 0.0
2016-Jul-22 23:25N 62°14' W 006°48'0 0.0
2016-Jul-22 21:30N 62°14' W 006°48'0 0.0
2016-Jul-22 20:33N 62°14' W 006°48'1 0.1
2016-Jul-22 09:33N 62°13' W 006°48'2 2.0
2016-Jul-22 08:33N 62°15' W 006°46'4 2.1
2016-Jul-22 06:33N 62°18' W 006°53'7 0.4
2016-Jul-21 13:33N 62°13' W 006°42'4 4.4
2016-Jul-21 12:33N 62°08' W 006°41'0 0.3
2016-Jul-21 11:33N 62°08' W 006°41'2 2.3
2016-Jul-21 10:33N 62°08' W 006°36'4 4.0
2016-Jul-21 09:33N 62°10' W 006°43'0 0.0
2016-Jul-21 08:33N 62°10' W 006°43'2 2.4
2016-Jul-21 07:33N 62°13' W 006°42'2 0.1
2016-Jul-20 13:33N 62°14' W 006°46'8 7.6
2016-Jul-20 12:33N 62°07' W 006°36'8 8.0
2016-Jul-20 11:33N 62°01' W 006°45'1 1.3
2016-Jul-20 10:33N 61°59' W 006°45'7 6.7
2016-Jul-20 09:34N 62°05' W 006°39'7 7.3
2016-Jul-20 08:33N 62°12' W 006°32'0 0.0
2016-Jul-20 07:33N 62°12' W 006°32'2 1.8
2016-Jul-20 06:33N 62°12' W 006°36'6 1.0
2016-Jul-20 00:33N 62°14' W 006°48'0 0.0
2016-Jul-19 23:21N 62°14' W 006°48'0 0.0
2016-Jul-19 21:16N 62°14' W 006°48'0 0.0
2016-Jul-19 20:15N 62°14' W 006°48'0 0.0
2016-Jul-19 19:33N 62°14' W 006°48'0 0.0
2016-Jul-19 18:33N 62°14' W 006°48'0 0.0
2016-Jul-19 13:09N 62°14' W 006°48'0 0.0
2016-Jul-19 12:18N 62°14' W 006°48'1 0.0
2016-Jul-18 15:33N 62°14' W 006°47'10 9.9
2016-Jul-18 14:33N 62°11' W 006°26'6 5.9
2016-Jul-18 13:33N 62°17' W 006°29'0 0.0
2016-Jul-18 12:33N 62°17' W 006°29'1 0.5
2016-Jul-18 11:33N 62°16' W 006°29'0 0.0
2016-Jul-18 10:33N 62°16' W 006°29'6 6.3
2016-Jul-18 09:33N 62°10' W 006°27'7 6.9
2016-Jul-18 08:33N 62°08' W 006°41'0 0.0
2016-Jul-18 07:33N 62°08' W 006°41'3 3.0
2016-Jul-18 06:33N 62°11' W 006°38'  

Dump ship's entire track history